Terminal Aerodrome Forecast
Issued by NWS Sterling, VA

Current Version | Previous Version | Graphics & Text | Print | Product List | Glossary On
Versions: 1 2 3 4 5 6 7 8 9 10 11 12 13 14 15 16 17 18 19 20 21 22 23 24 25 26 27
533
FTUS41 KLWX 031726
TAFIAD
TAF
KIAD 031726Z 0318/0424 18010KT 1SM -RA BR OVC002 WS020/18045KT
     FM031900 19007KT 2SM SHRA BR BKN012 OVC025
     FM032200 VRB05KT 4SM -RA BR OVC030
     FM040600 34007KT 4SM BR BKN050
     FM041500 33012KT P6SM BKN100=

USA.gov is the U.S. government's official web portal to all federal, state and local government web resources and services.